Airport View

Enter AWOS ICAO identifier for current METAR.

ex. KFNL

KSMO 300351Z AUTO 08003KT 10SM CLR 16/12 A2998 RMK AO2 SLP151 T01610122

30 Oct 2020 04:03

Phone: 310-392-6453

Other Area AWOS: KLAX - KHHR - KCQT - KVNY

TAF KSMO 292331Z 3000/3024 23007KT P6SM SKC FM300300 VRB03KT P6SM SKC FM301900 23007KT P6SM SKC